Maulden, United Kingdom
Current Conditions -  °F | °C
As of 5:50 PM on Thursday 23 Oct 2014 (Local Time) from EGTC Reporting Station
Broken Clouds Broken Clouds  
Wind Chill: 59°   Ceiling: 3200
Heat Index: 59°   Visibility: 6mi
Dew Point: 57°   Wind: 14mph
Humidity: 94%   Direction: 200°SSW
Pressure: 30"   Gusts: NA
Location:  52.03°N, 0.47°W
Report Text: EGTC 231650Z 20012KT 9999 SCT015 BKN032 15/14 Q1016
Loading
Personal Weather Stations






























Interactive Weather Map
Tropical Storm Tracking
New forecast layout! Learn more

10-Day Weather Forecast

Advertisements
Track Severe Weather on mobile